Time;durP1;ratioP1;P1;durP2;ratioP2;P2;SDS_P1;SDS_P2;PMS_P1;PMS_P2;Temp;Humidity;BMP_temperature;BMP_pressure;BME280_temperature;BME280_humidity;BME280_pressure;Samples;Min_cycle;Max_cycle;Signal;HPM_P1;HPM_P2
2023/09/19 00:02:24;;;;;;;12.75;2.95;;;;;;;;;;5038658;28;20048;-81
2023/09/19 00:04:52;;;;;;;11.73;2.88;;;;;;;;;;5033995;28;20072;-80
2023/09/19 00:07:18;;;;;;;9.38;2.60;;;;;;;;;;5035124;28;20052;-80
2023/09/19 00:09:44;;;;;;;10.60;2.90;;;;;;;;;;5042245;28;20489;-81
2023/09/19 00:12:13;;;;;;;8.85;2.60;;;;;;;;;;5023739;28;20436;-81
2023/09/19 00:14:40;;;;;;;10.80;2.40;;;;;;;;;;5040245;28;20063;-81
2023/09/19 00:17:09;;;;;;;8.75;2.78;;;;;;;;;;5066278;28;20048;-80
2023/09/19 00:19:35;;;;;;;9.65;2.95;;;;;;;;;;5036104;28;20045;-81
2023/09/19 00:22:02;;;;;;;12.98;3.08;;;;;;;;;;5020474;28;20049;-81
2023/09/19 00:24:28;;;;;;;10.23;2.70;;;;;;;;;;5055132;28;20167;-80
2023/09/19 00:26:59;;;;;;;12.73;3.05;;;;;;;;;;5037303;28;20092;-80
2023/09/19 00:29:29;;;;;;;8.80;2.75;;;;;;;;;;5046525;28;20044;-80
2023/09/19 00:32:00;;;;;;;13.13;3.22;;;;;;;;;;5057119;28;20044;-80
2023/09/19 00:34:27;;;;;;;9.45;2.50;;;;;;;;;;5035087;28;20089;-80
2023/09/19 00:36:54;;;;;;;12.13;2.80;;;;;;;;;;5034679;28;20091;-81
2023/09/19 00:39:20;;;;;;;15.13;2.83;;;;;;;;;;5034649;28;20608;-81
2023/09/19 00:41:46;;;;;;;11.20;2.80;;;;;;;;;;5054263;28;20048;-81
2023/09/19 00:44:12;;;;;;;11.57;2.60;;;;;;;;;;5034739;28;20045;-81
2023/09/19 00:46:38;;;;;;;13.80;2.95;;;;;;;;;;5050375;28;20052;-81
2023/09/19 00:49:05;;;;;;;10.45;2.60;;;;;;;;;;5055484;28;20127;-81
2023/09/19 00:51:31;;;;;;;10.63;2.60;;;;;;;;;;5046950;28;20438;-81
2023/09/19 00:53:59;;;;;;;11.15;2.63;;;;;;;;;;5035897;28;20132;-81
2023/09/19 00:56:25;;;;;;;11.20;2.60;;;;;;;;;;5036070;28;20052;-81
2023/09/19 00:58:51;;;;;;;10.07;2.75;;;;;;;;;;5036655;28;20040;-80
2023/09/19 01:01:17;;;;;;;9.68;2.58;;;;;;;;;;5036175;28;20088;-80
2023/09/19 01:03:44;;;;;;;11.52;2.70;;;;;;;;;;5039134;28;20574;-80
2023/09/19 01:06:12;;;;;;;9.13;2.63;;;;;;;;;;5048563;28;20049;-80
2023/09/19 01:08:38;;;;;;;11.00;2.80;;;;;;;;;;5019076;28;20045;-80
2023/09/19 01:11:15;;;;;;;9.35;2.42;;;;;;;;;;5046141;28;20060;-79
2023/09/19 01:14:00;;;;;;;10.85;2.80;;;;;;;;;;5044200;28;20130;-80
2023/09/19 01:16:26;;;;;;;10.77;2.97;;;;;;;;;;5051795;28;20444;-81
2023/09/19 01:19:11;;;;;;;12.07;2.75;;;;;;;;;;5067641;28;20041;-81
2023/09/19 01:21:45;;;;;;;8.93;2.63;;;;;;;;;;5034667;28;20041;-81
2023/09/19 01:24:28;;;;;;;9.93;2.95;;;;;;;;;;5015558;28;20049;-81
2023/09/19 01:27:01;;;;;;;10.75;3.00;;;;;;;;;;5016287;28;20049;-81
2023/09/19 01:29:34;;;;;;;11.10;2.75;;;;;;;;;;5015858;28;20064;-81
2023/09/19 01:32:05;;;;;;;12.48;2.92;;;;;;;;;;5053350;28;20044;-81
2023/09/19 01:34:48;;;;;;;14.05;3.00;;;;;;;;;;5044950;28;20045;-80
2023/09/19 01:37:18;;;;;;;9.15;2.78;;;;;;;;;;5015615;28;20132;-80
2023/09/19 01:39:44;;;;;;;10.40;2.72;;;;;;;;;;5031716;28;20498;-80
2023/09/19 01:42:16;;;;;;;8.13;2.17;;;;;;;;;;5015207;28;20052;-80
2023/09/19 01:44:42;;;;;;;11.70;2.85;;;;;;;;;;5032478;28;20060;-80
2023/09/19 01:47:14;;;;;;;10.15;2.70;;;;;;;;;;5049220;28;20048;-79
2023/09/19 01:49:46;;;;;;;9.70;2.78;;;;;;;;;;5070912;28;20079;-80
2023/09/19 01:52:13;;;;;;;13.88;2.75;;;;;;;;;;5052175;28;20051;-80
2023/09/19 01:54:52;;;;;;;15.73;3.22;;;;;;;;;;5071356;28;20044;-80
2023/09/19 01:57:21;;;;;;;9.80;2.65;;;;;;;;;;5054820;28;20457;-80
2023/09/19 01:59:57;;;;;;;9.82;2.67;;;;;;;;;;5054863;28;20047;-81
2023/09/19 02:02:24;;;;;;;9.02;2.80;;;;;;;;;;5043619;28;20485;-81
2023/09/19 02:04:50;;;;;;;11.52;2.60;;;;;;;;;;5064505;28;20051;-80
2023/09/19 02:07:17;;;;;;;9.80;2.50;;;;;;;;;;5039893;28;20532;-79
2023/09/19 02:09:43;;;;;;;9.60;2.70;;;;;;;;;;5038874;28;20040;-79
2023/09/19 02:12:09;;;;;;;9.57;2.55;;;;;;;;;;5018111;28;20062;-81
2023/09/19 02:14:36;;;;;;;12.65;2.97;;;;;;;;;;5030284;28;20084;-81
2023/09/19 02:17:11;;;;;;;10.98;3.00;;;;;;;;;;5048200;28;20048;-81
2023/09/19 02:19:38;;;;;;;12.80;2.70;;;;;;;;;;5033501;28;20049;-81
2023/09/19 02:22:07;;;;;;;13.18;2.92;;;;;;;;;;5029750;28;20072;-81
2023/09/19 02:24:33;;;;;;;12.93;2.72;;;;;;;;;;5033410;28;20067;-81
2023/09/19 02:27:04;;;;;;;12.15;3.00;;;;;;;;;;5032952;28;20075;-81
2023/09/19 02:29:30;;;;;;;9.57;2.80;;;;;;;;;;5039403;28;20071;-81
2023/09/19 02:31:56;;;;;;;11.98;2.63;;;;;;;;;;5070820;28;20125;-81
2023/09/19 02:34:23;;;;;;;11.93;2.90;;;;;;;;;;5074072;28;20049;-81
2023/09/19 02:36:49;;;;;;;7.57;2.55;;;;;;;;;;5070866;28;20036;-82
2023/09/19 02:39:15;;;;;;;8.02;2.70;;;;;;;;;;5079147;28;20041;-81
2023/09/19 02:41:41;;;;;;;9.05;2.75;;;;;;;;;;5050986;28;20103;-81
2023/09/19 02:44:08;;;;;;;10.98;2.65;;;;;;;;;;5055545;28;20131;-81
2023/09/19 02:46:36;;;;;;;10.88;2.70;;;;;;;;;;5041063;28;20064;-81
2023/09/19 02:49:05;;;;;;;9.25;2.75;;;;;;;;;;5041222;28;20048;-81
2023/09/19 02:51:32;;;;;;;10.27;2.65;;;;;;;;;;5041405;28;20053;-81
2023/09/19 02:53:58;;;;;;;9.43;2.47;;;;;;;;;;5042468;28;20435;-81
2023/09/19 02:56:24;;;;;;;13.88;2.90;;;;;;;;;;5042603;28;20102;-81
2023/09/19 02:58:51;;;;;;;12.75;2.85;;;;;;;;;;5039012;28;20056;-79
2023/09/19 03:01:18;;;;;;;7.95;2.60;;;;;;;;;;5082473;28;20036;-79
2023/09/19 03:03:44;;;;;;;12.07;2.85;;;;;;;;;;5031907;28;20508;-79
2023/09/19 03:06:12;;;;;;;9.75;2.70;;;;;;;;;;5042509;28;20049;-81
2023/09/19 03:08:39;;;;;;;9.65;2.90;;;;;;;;;;5056436;28;20116;-80
2023/09/19 03:11:11;;;;;;;6.78;2.35;;;;;;;;;;5041349;28;20088;-80
2023/09/19 03:13:38;;;;;;;12.23;2.70;;;;;;;;;;5023039;28;20482;-80
2023/09/19 03:16:07;;;;;;;13.30;2.85;;;;;;;;;;5040858;28;20053;-80
2023/09/19 03:18:37;;;;;;;8.32;2.22;;;;;;;;;;5041020;28;20572;-80
2023/09/19 03:21:03;;;;;;;8.95;2.60;;;;;;;;;;5042333;28;20087;-81
2023/09/19 03:23:30;;;;;;;10.85;2.65;;;;;;;;;;5039885;28;20497;-81
2023/09/19 03:25:57;;;;;;;6.53;2.38;;;;;;;;;;5045708;28;20113;-81
2023/09/19 03:28:23;;;;;;;8.00;2.30;;;;;;;;;;5050218;28;20559;-81
2023/09/19 03:30:59;;;;;;;9.50;2.33;;;;;;;;;;5026582;28;20131;-81
2023/09/19 03:33:25;;;;;;;8.98;2.53;;;;;;;;;;5040857;28;20060;-80
2023/09/19 03:35:58;;;;;;;12.27;3.03;;;;;;;;;;5075034;28;20041;-80
2023/09/19 03:38:24;;;;;;;7.05;2.33;;;;;;;;;;5070609;28;20044;-80
2023/09/19 03:40:50;;;;;;;12.30;2.75;;;;;;;;;;5050865;28;20044;-80
2023/09/19 03:43:17;;;;;;;8.27;2.75;;;;;;;;;;5072687;28;20043;-80
2023/09/19 03:45:43;;;;;;;9.35;2.80;;;;;;;;;;5028217;28;20136;-80
2023/09/19 03:48:10;;;;;;;12.77;2.60;;;;;;;;;;5052179;28;20056;-80
2023/09/19 03:50:36;;;;;;;8.43;2.60;;;;;;;;;;5037778;28;20041;-81
2023/09/19 03:53:02;;;;;;;11.50;2.70;;;;;;;;;;5021536;28;20183;-81
2023/09/19 03:55:30;;;;;;;8.60;2.58;;;;;;;;;;5056470;28;20040;-80
2023/09/19 03:57:56;;;;;;;12.88;2.85;;;;;;;;;;5057758;28;20041;-81
2023/09/19 04:00:26;;;;;;;12.82;3.00;;;;;;;;;;5057902;28;20048;-81
2023/09/19 04:02:52;;;;;;;10.00;2.67;;;;;;;;;;5057179;28;20044;-80
2023/09/19 04:05:19;;;;;;;9.35;2.75;;;;;;;;;;5036484;28;20101;-80
2023/09/19 04:07:45;;;;;;;10.95;2.72;;;;;;;;;;5040268;28;20045;-81
2023/09/19 04:10:12;;;;;;;8.85;2.63;;;;;;;;;;5019952;28;20143;-81
2023/09/19 04:12:38;;;;;;;11.48;2.65;;;;;;;;;;5020601;28;20183;-81
2023/09/19 04:15:08;;;;;;;10.85;2.70;;;;;;;;;;5037180;28;20049;-80
2023/09/19 04:17:34;;;;;;;11.02;2.45;;;;;;;;;;5055091;28;20083;-80
2023/09/19 04:20:00;;;;;;;9.40;2.78;;;;;;;;;;5039606;28;20140;-80
2023/09/19 04:22:26;;;;;;;8.73;2.53;;;;;;;;;;5038401;28;20056;-80
2023/09/19 04:24:52;;;;;;;9.50;2.70;;;;;;;;;;5014718;28;20045;-81
2023/09/19 04:27:19;;;;;;;9.65;2.70;;;;;;;;;;5034917;28;20379;-80
2023/09/19 04:29:45;;;;;;;12.90;2.80;;;;;;;;;;5042394;28;20040;-80
2023/09/19 04:32:13;;;;;;;12.02;2.70;;;;;;;;;;5055018;28;20441;-81
2023/09/19 04:34:39;;;;;;;7.85;2.38;;;;;;;;;;5039953;28;20142;-79
2023/09/19 04:37:05;;;;;;;12.93;3.05;;;;;;;;;;5053282;28;20044;-81
2023/09/19 04:39:31;;;;;;;11.95;2.80;;;;;;;;;;5036686;28;20403;-81
2023/09/19 04:41:58;;;;;;;10.80;2.80;;;;;;;;;;5050732;28;20156;-81
2023/09/19 04:44:24;;;;;;;10.05;2.70;;;;;;;;;;5032291;28;20115;-80
2023/09/19 04:46:50;;;;;;;11.68;2.75;;;;;;;;;;5031687;28;20052;-81
2023/09/19 04:49:18;;;;;;;12.57;3.08;;;;;;;;;;5054173;28;20056;-80
2023/09/19 04:51:47;;;;;;;12.05;2.97;;;;;;;;;;5053870;28;20041;-80
2023/09/19 04:54:14;;;;;;;11.35;2.90;;;;;;;;;;5052570;28;20119;-80
2023/09/19 04:56:40;;;;;;;10.57;2.75;;;;;;;;;;5073479;28;20044;-81
2023/09/19 04:59:06;;;;;;;13.80;2.78;;;;;;;;;;5038135;28;20430;-81
2023/09/19 05:01:32;;;;;;;10.30;2.80;;;;;;;;;;5030734;28;20365;-80
2023/09/19 05:03:58;;;;;;;11.65;3.00;;;;;;;;;;5041802;28;20033;-80
2023/09/19 05:06:26;;;;;;;12.63;2.83;;;;;;;;;;5053032;28;20501;-79
2023/09/19 05:08:52;;;;;;;11.45;2.80;;;;;;;;;;5055714;28;20044;-80
2023/09/19 05:11:22;;;;;;;12.95;2.90;;;;;;;;;;5031822;28;20125;-79
2023/09/19 05:13:50;;;;;;;10.75;2.65;;;;;;;;;;5048966;28;20063;-79
2023/09/19 05:16:16;;;;;;;10.75;2.80;;;;;;;;;;5051212;28;20080;-79
2023/09/19 05:18:42;;;;;;;9.40;2.85;;;;;;;;;;5033100;28;20064;-80
2023/09/19 05:21:08;;;;;;;11.10;2.75;;;;;;;;;;5032891;28;20170;-80
2023/09/19 05:23:35;;;;;;;13.38;3.38;;;;;;;;;;5048596;28;20125;-80
2023/09/19 05:26:01;;;;;;;8.90;2.70;;;;;;;;;;5033577;28;20065;-80
2023/09/19 05:28:27;;;;;;;10.10;2.80;;;;;;;;;;5023037;28;20133;-80
2023/09/19 05:30:53;;;;;;;13.23;3.10;;;;;;;;;;5026420;28;20052;-80
2023/09/19 05:33:20;;;;;;;10.57;3.17;;;;;;;;;;5055565;28;20385;-80
2023/09/19 05:35:48;;;;;;;9.95;2.78;;;;;;;;;;5023537;28;20501;-80
2023/09/19 05:38:18;;;;;;;9.20;2.60;;;;;;;;;;5035295;28;20142;-80
2023/09/19 05:40:45;;;;;;;12.48;3.20;;;;;;;;;;5014775;28;20566;-81
2023/09/19 05:43:12;;;;;;;12.57;3.00;;;;;;;;;;5015293;28;20580;-81
2023/09/19 05:45:38;;;;;;;11.27;3.15;;;;;;;;;;5015176;28;20406;-81
2023/09/19 05:48:15;;;;;;;12.55;3.03;;;;;;;;;;5023975;28;20119;-80
2023/09/19 05:50:42;;;;;;;9.90;2.75;;;;;;;;;;5032815;28;20059;-81
2023/09/19 05:53:14;;;;;;;8.73;2.80;;;;;;;;;;5067962;28;20059;-81
2023/09/19 05:55:40;;;;;;;9.93;3.17;;;;;;;;;;5052758;28;20073;-81
2023/09/19 05:58:07;;;;;;;7.85;2.75;;;;;;;;;;5035299;28;20052;-81
2023/09/19 06:00:33;;;;;;;10.50;2.88;;;;;;;;;;5068441;28;20041;-81
2023/09/19 06:02:59;;;;;;;10.38;2.90;;;;;;;;;;5067830;28;20055;-80
2023/09/19 06:05:26;;;;;;;10.80;2.97;;;;;;;;;;5066420;28;20052;-81
2023/09/19 06:07:53;;;;;;;11.88;2.97;;;;;;;;;;5067348;28;20037;-81
2023/09/19 06:10:20;;;;;;;9.93;2.70;;;;;;;;;;5050568;28;20102;-81
2023/09/19 06:12:48;;;;;;;12.73;3.20;;;;;;;;;;5021884;28;20059;-81
2023/09/19 06:15:15;;;;;;;11.15;2.92;;;;;;;;;;5055224;28;20490;-81
2023/09/19 06:17:51;;;;;;;12.60;3.10;;;;;;;;;;5027912;28;20069;-82
2023/09/19 06:20:19;;;;;;;15.68;2.95;;;;;;;;;;5036912;28;20134;-82
2023/09/19 06:22:46;;;;;;;12.63;3.40;;;;;;;;;;5010971;28;20052;-82
2023/09/19 06:25:15;;;;;;;11.57;3.30;;;;;;;;;;5039731;28;20056;-81
2023/09/19 06:27:42;;;;;;;9.65;2.88;;;;;;;;;;5070132;28;20048;-81
2023/09/19 06:30:09;;;;;;;11.00;2.65;;;;;;;;;;5055176;28;20064;-81
2023/09/19 06:32:35;;;;;;;11.70;3.10;;;;;;;;;;5053277;28;20037;-80
2023/09/19 06:35:02;;;;;;;11.85;3.00;;;;;;;;;;5063336;28;20040;-81
2023/09/19 06:37:29;;;;;;;11.80;3.30;;;;;;;;;;5055129;28;20043;-81
2023/09/19 06:39:56;;;;;;;8.80;2.78;;;;;;;;;;5038736;28;20107;-79
2023/09/19 06:42:23;;;;;;;14.32;2.97;;;;;;;;;;5054568;28;20044;-80
2023/09/19 06:44:49;;;;;;;13.30;3.53;;;;;;;;;;5072271;28;20129;-81
2023/09/19 06:47:16;;;;;;;13.77;3.13;;;;;;;;;;5054964;28;20090;-81
2023/09/19 06:49:45;;;;;;;11.52;3.25;;;;;;;;;;5065401;28;20151;-81
2023/09/19 06:52:11;;;;;;;13.02;2.97;;;;;;;;;;5072297;28;20055;-80
2023/09/19 06:54:37;;;;;;;12.45;2.85;;;;;;;;;;5054145;28;20184;-82
2023/09/19 06:57:03;;;;;;;16.38;3.08;;;;;;;;;;5054331;28;20139;-82
2023/09/19 06:59:32;;;;;;;10.48;3.10;;;;;;;;;;5054075;28;20516;-82
2023/09/19 07:01:59;;;;;;;10.93;2.78;;;;;;;;;;5054491;28;20044;-81
2023/09/19 07:04:25;;;;;;;14.40;3.17;;;;;;;;;;5037559;28;20045;-80
2023/09/19 07:06:51;;;;;;;13.45;3.35;;;;;;;;;;5054297;28;20040;-82
2023/09/19 07:09:22;;;;;;;10.07;3.35;;;;;;;;;;5054509;28;20036;-82
2023/09/19 07:11:50;;;;;;;13.00;3.17;;;;;;;;;;5054782;28;20080;-83
2023/09/19 07:14:16;;;;;;;13.38;3.08;;;;;;;;;;5037560;28;20091;-84
2023/09/19 07:16:44;;;;;;;11.60;3.47;;;;;;;;;;5038012;28;20136;-83
2023/09/19 07:19:10;;;;;;;12.02;2.95;;;;;;;;;;5025842;28;20095;-83
2023/09/19 07:21:38;;;;;;;13.55;2.97;;;;;;;;;;5017958;28;20057;-82
2023/09/19 07:24:05;;;;;;;11.70;3.22;;;;;;;;;;5002121;28;20394;-82
2023/09/19 07:26:31;;;;;;;12.00;3.53;;;;;;;;;;5017850;28;20079;-83
2023/09/19 07:28:57;;;;;;;12.25;2.95;;;;;;;;;;5033003;28;20037;-84
2023/09/19 07:31:25;;;;;;;11.32;3.20;;;;;;;;;;5020035;28;20051;-83
2023/09/19 07:33:51;;;;;;;11.02;2.92;;;;;;;;;;5020789;28;20059;-81
2023/09/19 07:36:17;;;;;;;10.10;2.72;;;;;;;;;;5037512;28;20119;-81
2023/09/19 07:38:43;;;;;;;13.77;3.40;;;;;;;;;;5035553;28;20049;-79
2023/09/19 07:41:09;;;;;;;11.00;3.20;;;;;;;;;;5037603;28;20048;-80
2023/09/19 07:43:37;;;;;;;14.68;3.20;;;;;;;;;;5037384;28;20041;-79
2023/09/19 07:46:05;;;;;;;12.38;2.80;;;;;;;;;;5020114;28;20504;-80
2023/09/19 07:48:31;;;;;;;13.20;3.00;;;;;;;;;;5017669;28;20041;-81
2023/09/19 07:51:01;;;;;;;12.18;3.17;;;;;;;;;;5024740;28;20052;-80
2023/09/19 07:53:27;;;;;;;12.40;3.03;;;;;;;;;;5067932;28;20393;-81
2023/09/19 07:56:01;;;;;;;14.35;3.42;;;;;;;;;;5069728;28;20045;-81
2023/09/19 07:58:28;;;;;;;12.60;2.78;;;;;;;;;;5054869;28;20082;-81
2023/09/19 08:00:54;;;;;;;13.73;3.38;;;;;;;;;;5020576;28;20052;-81
2023/09/19 08:03:20;;;;;;;12.07;3.40;;;;;;;;;;5070387;28;20608;-81
2023/09/19 08:05:48;;;;;;;12.65;3.28;;;;;;;;;;5070014;28;20425;-81
2023/09/19 08:08:14;;;;;;;10.50;3.10;;;;;;;;;;5020178;28;20056;-80
2023/09/19 08:10:42;;;;;;;15.73;3.83;;;;;;;;;;5068422;28;20049;-81
2023/09/19 08:13:14;;;;;;;12.75;3.25;;;;;;;;;;5068215;28;20056;-80
2023/09/19 08:15:44;;;;;;;11.52;3.22;;;;;;;;;;5068205;28;20049;-80
2023/09/19 08:18:13;;;;;;;11.30;3.08;;;;;;;;;;5018784;28;20045;-80
2023/09/19 08:20:42;;;;;;;15.32;3.30;;;;;;;;;;5065948;28;20098;-80
2023/09/19 08:23:09;;;;;;;10.00;3.05;;;;;;;;;;5021564;28;20076;-80
2023/09/19 08:25:35;;;;;;;10.43;3.10;;;;;;;;;;5019452;28;20077;-80
2023/09/19 08:28:08;;;;;;;11.25;3.30;;;;;;;;;;5019230;28;20045;-81
2023/09/19 08:30:34;;;;;;;11.88;3.50;;;;;;;;;;5015986;28;20041;-80
2023/09/19 08:33:01;;;;;;;10.95;3.35;;;;;;;;;;5016708;28;20041;-80
2023/09/19 08:35:28;;;;;;;11.32;2.97;;;;;;;;;;5016576;28;20458;-81
2023/09/19 08:37:55;;;;;;;13.23;3.55;;;;;;;;;;5016351;28;20052;-81
2023/09/19 08:40:21;;;;;;;11.25;3.25;;;;;;;;;;5016478;28;20124;-82
2023/09/19 08:42:53;;;;;;;13.07;3.40;;;;;;;;;;5000556;28;20436;-81
2023/09/19 08:45:22;;;;;;;9.48;2.88;;;;;;;;;;4999520;28;20482;-81
2023/09/19 08:48:04;;;;;;;11.15;3.25;;;;;;;;;;4999321;28;20045;-80
2023/09/19 08:50:31;;;;;;;13.43;3.13;;;;;;;;;;5035784;28;20510;-81
2023/09/19 08:53:00;;;;;;;10.25;3.17;;;;;;;;;;5036170;28;20052;-80
2023/09/19 08:55:30;;;;;;;9.68;3.10;;;;;;;;;;5035776;28;20509;-81
2023/09/19 08:58:04;;;;;;;13.30;3.25;;;;;;;;;;5032076;28;20041;-81
2023/09/19 09:00:31;;;;;;;10.43;3.05;;;;;;;;;;5036184;28;20378;-81
2023/09/19 09:02:59;;;;;;;7.53;2.50;;;;;;;;;;5052589;28;20073;-82
2023/09/19 09:05:26;;;;;;;14.38;3.30;;;;;;;;;;5035890;28;20497;-81
2023/09/19 09:07:56;;;;;;;12.02;3.17;;;;;;;;;;5035633;28;20041;-81
2023/09/19 09:10:22;;;;;;;11.32;3.20;;;;;;;;;;5035967;28;20049;-82
2023/09/19 09:12:57;;;;;;;12.55;3.22;;;;;;;;;;5035817;28;20048;-82
2023/09/19 09:15:23;;;;;;;11.60;3.22;;;;;;;;;;5035711;28;20041;-82
2023/09/19 09:17:53;;;;;;;12.90;3.20;;;;;;;;;;5035766;28;20041;-83
2023/09/19 09:20:19;;;;;;;15.75;3.40;;;;;;;;;;5035496;28;20493;-80
2023/09/19 09:22:55;;;;;;;14.95;3.67;;;;;;;;;;5025147;28;20088;-81
2023/09/19 09:25:25;;;;;;;10.65;3.42;;;;;;;;;;5015671;28;20053;-81
2023/09/19 09:28:01;;;;;;;17.67;3.70;;;;;;;;;;5014618;28;20049;-81
2023/09/19 09:30:35;;;;;;;12.23;3.45;;;;;;;;;;5015604;28;20069;-81
2023/09/19 09:33:19;;;;;;;15.60;3.75;;;;;;;;;;5033993;28;20068;-81
2023/09/19 09:36:00;;;;;;;11.80;3.25;;;;;;;;;;5015666;28;20077;-81
2023/09/19 09:38:28;;;;;;;16.63;4.43;;;;;;;;;;5014232;28;20211;-82
2023/09/19 09:41:06;;;;;;;13.27;3.42;;;;;;;;;;5014859;28;20125;-82
2023/09/19 09:43:36;;;;;;;13.65;3.63;;;;;;;;;;5015672;28;20500;-81
2023/09/19 09:46:29;;;;;;;16.40;3.50;;;;;;;;;;5015930;28;20084;-81
2023/09/19 09:52:16;;;;;;;14.68;3.50;;;;;;;;;;5019314;28;20156;-83
2023/09/19 09:54:59;;;;;;;9.05;3.20;;;;;;;;;;5030992;28;20127;-80
2023/09/19 09:57:25;;;;;;;15.15;3.60;;;;;;;;;;5050380;28;20042;-82
2023/09/19 09:59:55;;;;;;;11.52;3.20;;;;;;;;;;4998809;28;20084;-82
2023/09/19 10:02:36;;;;;;;10.73;3.42;;;;;;;;;;5015788;28;20081;-82
2023/09/19 10:05:20;;;;;;;15.15;3.83;;;;;;;;;;5000372;28;20051;-83
2023/09/19 10:07:49;;;;;;;11.20;3.53;;;;;;;;;;5002122;28;20110;-78
2023/09/19 10:10:16;;;;;;;12.07;3.80;;;;;;;;;;5052133;28;20092;-78
2023/09/19 10:12:45;;;;;;;12.48;3.40;;;;;;;;;;5037739;28;20056;-78
2023/09/19 10:15:16;;;;;;;11.48;3.40;;;;;;;;;;5016855;28;20074;-76
2023/09/19 10:17:46;;;;;;;15.00;3.50;;;;;;;;;;5031483;28;20088;-77
2023/09/19 10:20:32;;;;;;;16.10;3.55;;;;;;;;;;5031592;28;20056;-76
2023/09/19 10:22:59;;;;;;;17.27;3.55;;;;;;;;;;5018814;28;20044;-76
2023/09/19 10:25:30;;;;;;;15.93;3.53;;;;;;;;;;5017514;28;20046;-77
2023/09/19 10:27:58;;;;;;;12.70;3.42;;;;;;;;;;5009653;28;20081;-76
2023/09/19 10:30:25;;;;;;;15.50;3.55;;;;;;;;;;5025258;28;20114;-76
2023/09/19 10:32:58;;;;;;;12.73;3.53;;;;;;;;;;5009533;28;20452;-76
2023/09/19 10:35:24;;;;;;;10.27;3.38;;;;;;;;;;5025046;28;20053;-77
2023/09/19 10:37:51;;;;;;;15.38;3.60;;;;;;;;;;5009894;28;20050;-76
2023/09/19 10:40:18;;;;;;;13.90;3.58;;;;;;;;;;5009987;28;20037;-77
2023/09/19 10:42:46;;;;;;;14.85;3.28;;;;;;;;;;5007105;28;20049;-77
2023/09/19 10:45:15;;;;;;;17.42;3.30;;;;;;;;;;5015145;28;20064;-78
2023/09/19 10:47:41;;;;;;;17.10;3.63;;;;;;;;;;5050921;28;20094;-77
2023/09/19 10:50:12;;;;;;;11.48;3.70;;;;;;;;;;5051695;28;20072;-76
2023/09/19 10:52:41;;;;;;;12.70;3.72;;;;;;;;;;5056637;28;20516;-77
2023/09/19 10:55:09;;;;;;;12.20;3.40;;;;;;;;;;5054721;28;20091;-79
2023/09/19 10:57:35;;;;;;;11.88;3.20;;;;;;;;;;5056635;28;20413;-78
2023/09/19 11:00:27;;;;;;;16.77;3.90;;;;;;;;;;5046453;28;20044;-78
2023/09/19 11:03:11;;;;;;;14.07;3.55;;;;;;;;;;5041228;28;20130;-78
2023/09/19 11:05:40;;;;;;;13.38;3.65;;;;;;;;;;5053346;28;20048;-78
2023/09/19 11:08:11;;;;;;;12.80;3.30;;;;;;;;;;5054205;28;20053;-77
2023/09/19 11:10:50;;;;;;;18.88;3.80;;;;;;;;;;5055392;28;20053;-77
2023/09/19 11:13:26;;;;;;;14.07;3.45;;;;;;;;;;5050585;28;20163;-78
2023/09/19 11:15:52;;;;;;;14.55;3.47;;;;;;;;;;5056881;28;20123;-78
2023/09/19 11:18:37;;;;;;;14.70;3.55;;;;;;;;;;5074449;28;20200;-78
2023/09/19 11:21:24;;;;;;;14.05;3.40;;;;;;;;;;5030535;28;20111;-78
2023/09/19 11:24:10;;;;;;;13.43;3.42;;;;;;;;;;5019667;28;20528;-77
2023/09/19 11:26:47;;;;;;;14.82;3.83;;;;;;;;;;5033785;28;20052;-78
2023/09/19 11:29:28;;;;;;;12.55;3.65;;;;;;;;;;5033196;28;20046;-78
2023/09/19 11:32:01;;;;;;;14.63;3.60;;;;;;;;;;5037164;28;20053;-84
2023/09/19 11:34:36;;;;;;;12.77;3.45;;;;;;;;;;5018113;28;20042;-83
2023/09/19 11:37:06;;;;;;;;;;;;;;;;;;5033927;28;20107;-84
2023/09/19 11:39:32;;;;;;;15.60;3.30;;;;;;;;;;5038403;28;19921;-83
2023/09/19 11:42:00;;;;;;;12.20;3.47;;;;;;;;;;5037416;28;20397;-82
2023/09/19 11:44:26;;;;;;;14.25;3.67;;;;;;;;;;5034372;28;20053;-83
2023/09/19 11:46:53;;;;;;;15.73;3.50;;;;;;;;;;5036727;28;20106;-83
2023/09/19 11:49:23;;;;;;;14.30;3.35;;;;;;;;;;5036580;28;20048;-82
2023/09/19 11:51:51;;;;;;;13.25;3.28;;;;;;;;;;5038856;28;20550;-83
2023/09/19 11:54:19;;;;;;;12.80;3.10;;;;;;;;;;5037607;28;20037;-83
2023/09/19 11:56:45;;;;;;;15.90;3.40;;;;;;;;;;5039266;28;20086;-83
2023/09/19 11:59:13;;;;;;;12.77;3.22;;;;;;;;;;5041292;28;20044;-83
2023/09/19 12:01:44;;;;;;;11.52;3.00;;;;;;;;;;5056232;28;20125;-83
2023/09/19 12:04:12;;;;;;;13.88;3.60;;;;;;;;;;5039234;28;20074;-83
2023/09/19 12:06:44;;;;;;;12.48;3.28;;;;;;;;;;5040710;28;20044;-83
2023/09/19 12:09:16;;;;;;;12.70;3.30;;;;;;;;;;5035790;28;20083;-83
2023/09/19 12:11:46;;;;;;;13.20;3.20;;;;;;;;;;5037630;28;20052;-83
2023/09/19 12:14:12;;;;;;;21.13;4.00;;;;;;;;;;5029466;28;20387;-83
2023/09/19 12:16:38;;;;;;;13.68;3.20;;;;;;;;;;5035681;28;20056;-82
2023/09/19 12:19:23;;;;;;;16.48;3.38;;;;;;;;;;5035790;28;20049;-82
2023/09/19 12:21:59;;;;;;;14.77;3.35;;;;;;;;;;5018264;28;20048;-82
2023/09/19 12:24:29;;;;;;;18.00;3.83;;;;;;;;;;5018176;28;20378;-82
2023/09/19 12:27:01;;;;;;;15.52;3.58;;;;;;;;;;5033977;28;20059;-82
2023/09/19 12:29:29;;;;;;;12.70;3.28;;;;;;;;;;5018644;28;20044;-82
2023/09/19 12:32:00;;;;;;;12.30;3.60;;;;;;;;;;5017450;28;20045;-82
2023/09/19 12:34:27;;;;;;;14.05;3.88;;;;;;;;;;5018081;28;20528;-82
2023/09/19 12:37:11;;;;;;;12.38;3.35;;;;;;;;;;5032702;28;20390;-83
2023/09/19 12:39:41;;;;;;;16.90;3.85;;;;;;;;;;5030106;28;20366;-83
2023/09/19 12:42:10;;;;;;;12.65;3.20;;;;;;;;;;5032750;28;20353;-83
2023/09/19 12:44:38;;;;;;;12.45;3.28;;;;;;;;;;5037836;28;20052;-82
2023/09/19 12:47:11;;;;;;;12.88;3.33;;;;;;;;;;5037168;28;20053;-83
2023/09/19 12:49:57;;;;;;;14.70;3.45;;;;;;;;;;5034345;28;20419;-81
2023/09/19 12:52:25;;;;;;;13.07;3.20;;;;;;;;;;5035435;28;20049;-82
2023/09/19 12:54:52;;;;;;;14.32;3.25;;;;;;;;;;5035981;28;20076;-82
2023/09/19 12:57:27;;;;;;;11.77;2.72;;;;;;;;;;5052634;28;20432;-83
2023/09/19 12:59:53;;;;;;;;;;;;;;;;;;5016753;28;20072;-83
2023/09/19 13:02:23;;;;;;;;;;;;;;;;;;5016407;28;19920;-83
2023/09/19 13:04:59;;;;;;;11.43;3.00;;;;;;;;;;5021563;28;20027;-83
2023/09/19 13:07:49;;;;;;;14.18;3.08;;;;;;;;;;5034989;28;20952;-83
2023/09/19 13:10:16;;;;;;;10.02;3.05;;;;;;;;;;5026763;28;20158;-83
2023/09/19 13:12:44;;;;;;;13.75;3.25;;;;;;;;;;5056016;28;20104;-82
2023/09/19 13:15:20;;;;;;;12.40;3.05;;;;;;;;;;5040252;28;20083;-84
2023/09/19 13:17:48;;;;;;;10.07;2.70;;;;;;;;;;5043129;28;20057;-83
2023/09/19 13:20:27;;;;;;;9.52;2.55;;;;;;;;;;5047050;28;20100;-83
2023/09/19 13:22:54;;;;;;;10.88;2.78;;;;;;;;;;5045491;28;20071;-84
2023/09/19 13:25:21;;;;;;;12.75;3.17;;;;;;;;;;5042224;28;20068;-83
2023/09/19 13:27:53;;;;;;;11.00;2.80;;;;;;;;;;5034485;28;20444;-84
2023/09/19 13:30:20;;;;;;;11.32;3.08;;;;;;;;;;5020308;28;20079;-82
2023/09/19 13:32:49;;;;;;;9.25;2.75;;;;;;;;;;5037829;28;20504;-84
2023/09/19 13:35:16;;;;;;;11.90;2.83;;;;;;;;;;5018124;28;20070;-83
2023/09/19 13:37:43;;;;;;;11.90;2.75;;;;;;;;;;5015809;28;20045;-82
2023/09/19 13:40:09;;;;;;;7.47;2.42;;;;;;;;;;5036062;28;20119;-83
2023/09/19 13:42:36;;;;;;;13.35;2.80;;;;;;;;;;5014000;28;20049;-86
2023/09/19 13:45:05;;;;;;;12.93;3.17;;;;;;;;;;4996045;28;20057;-75
2023/09/19 13:47:42;;;;;;;8.55;2.55;;;;;;;;;;5045695;22;20064;-89
2023/09/19 13:50:18;;;;;;;8.80;2.50;;;;;;;;;;5010168;28;20143;-88
2023/09/19 13:52:48;;;;;;;10.50;2.55;;;;;;;;;;5033043;28;20037;-90
2023/09/19 13:55:20;;;;;;;7.45;2.17;;;;;;;;;;5032172;28;20052;-89
2023/09/19 13:57:58;;;;;;;6.63;2.17;;;;;;;;;;5031348;28;20702;-89
2023/09/19 14:00:34;;;;;;;8.88;2.58;;;;;;;;;;5028492;28;20122;-89
2023/09/19 14:03:16;;;;;;;8.30;2.33;;;;;;;;;;5031688;28;20642;-88
2023/09/19 14:05:48;;;;;;;9.07;2.17;;;;;;;;;;5025639;28;20374;-91
2023/09/19 14:08:18;;;;;;;10.60;2.55;;;;;;;;;;5010538;28;20596;-88
